Data for 01/25/2014

Time Sea-Level Adjusted Pressure Absolute Pressure Temperature Relative Humidity Dew Point   
(mb) (inHg) (mb) (inHg) (C) (F) (%) (C) (F)
00:05 1028 30.36 857 25.31 0.2 32.3 63 -6.1 21
00:10 1028 30.36 857 25.31 -0.2 31.6 69 -5.2 22.6
00:15 1028 30.36 857 25.31 0.1 32.1 65 -5.7 21.8
00:20 1028 30.36 857 25.31 -0.2 31.6 63 -6.4 20.4
00:25 1028 30.36 857 25.31 0 32 62 -6.5 20.3
00:30 1028 30.36 857 25.31 -0.1 31.8 63 -6.4 20.5
00:35 1028 30.36 857 25.31 -0.2 31.7 62 -6.5 20.2
00:40 1028 30.36 857 25.31 -0.2 31.7 62 -6.5 20.3
00:45 1028 30.36 857 25.31 -0.4 31.3 63 -6.6 20.1
00:50 1028 30.36 857 25.31 -0.2 31.7 62 -6.7 20
00:55 1028 30.36 857 25.31 0 32.1 59 -7 19.5
01:00 1028 30.36 857 25.31 0.5 32.9 56 -7.3 18.8
01:05 1028 30.36 857 25.31 1.1 33.9 58 -6.3 20.7
01:10 1028 30.36 857 25.31 0.7 33.2 58 -6.7 19.9
01:15 1028 30.36 857 25.31 0.4 32.7 58 -6.9 19.6
01:20 1027 30.33 857 25.31 0.2 32.3 58 -7.1 19.3
01:25 1027 30.33 857 25.31 0.1 32.2 58 -7.1 19.2
01:30 1027 30.33 857 25.31 0.1 32.2 60 -6.8 19.8
01:35 1027 30.33 857 25.31 0.1 32.3 62 -6.3 20.7
01:40 1027 30.33 857 25.31 -0 31.9 64 -6.1 21.1
01:45 1027 30.33 856 25.28 0.4 32.7 60 -6.5 20.2
01:50 1027 30.33 856 25.28 0.1 32.2 62 -6.4 20.5
01:55 1027 30.33 856 25.28 -0.3 31.4 61 -6.9 19.6
02:00 1027 30.33 856 25.28 -0.7 30.8 62 -7.1 19.2
02:05 1027 30.33 856 25.28 -0.6 30.9 62 -6.9 19.5
02:10 1027 30.33 856 25.28 -0.5 31.1 62 -6.8 19.7
02:15 1027 30.33 856 25.28 -0.1 31.8 60 -6.9 19.5
02:20 1027 30.33 856 25.28 0.1 32.2 60 -6.8 19.7
02:25 1027 30.33 856 25.28 0.3 32.6 59 -6.8 19.7
02:30 1027 30.33 856 25.28 0 32.1 60 -6.7 19.9
02:35 1027 30.33 856 25.28 -0.3 31.5 61 -6.9 19.5
02:40 1027 30.33 856 25.28 -0.4 31.2 61 -7 19.4
02:45 1027 30.33 856 25.28 -0.4 31.3 62 -6.9 19.6
02:50 1027 30.33 856 25.28 -0.3 31.4 61 -6.9 19.6
02:55 1027 30.33 856 25.28 -0.1 31.8 61 -6.8 19.7
03:00 1027 30.33 856 25.28 -0 31.9 61 -6.8 19.8
03:05 1027 30.33 856 25.28 -0.1 31.8 62 -6.6 20.1
03:10 1027 30.33 856 25.28 -0.1 31.8 62 -6.5 20.3
03:15 1027 30.33 856 25.28 0 32.1 60 -6.8 19.7
03:20 1027 30.33 856 25.28 0.3 32.5 58 -7 19.4
03:25 1027 30.33 856 25.28 0.4 32.8 58 -7 19.4
03:30 1027 30.33 856 25.28 0.5 32.8 59 -6.7 19.9
03:35 1027 30.33 856 25.28 0.4 32.7 58 -6.9 19.6
03:40 1027 30.33 856 25.28 0.1 32.3 60 -6.8 19.8
03:45 1027 30.33 856 25.28 -0.1 31.8 61 -6.8 19.7
03:50 1027 30.33 856 25.28 -0.3 31.5 61 -6.9 19.6
03:55 1027 30.33 856 25.28 -0.4 31.3 62 -6.9 19.6
04:00 1026 30.3 856 25.28 -0.5 31.1 62 -6.9 19.6
04:05 1027 30.33 856 25.28 -0.6 30.8 63 -6.9 19.6
04:10 1027 30.33 856 25.28 -0.6 30.8 63 -6.9 19.7
04:15 1026 30.3 856 25.28 -1 30.1 65 -6.9 19.6
04:20 1026 30.3 856 25.28 -1.3 29.7 65 -7 19.5
04:25 1026 30.3 856 25.28 -1.3 29.7 66 -6.9 19.6
04:30 1026 30.3 855 25.25 -1.4 29.5 64 -7.4 18.7
04:35 1026 30.3 855 25.25 -1.4 29.6 63 -7.5 18.5
04:40 1026 30.3 855 25.25 -1.6 29.1 65 -7.4 18.7
04:45 1026 30.3 855 25.25 -1.5 29.3 64 -7.4 18.7
04:50 1026 30.3 855 25.25 -1.6 29.2 65 -7.4 18.7
04:55 1026 30.3 855 25.25 -1.7 29 65 -7.5 18.5
05:00 1026 30.3 855 25.25 -1.4 29.5 63 -7.5 18.4
05:05 1026 30.3 855 25.25 -1.5 29.4 64 -7.4 18.6
05:10 1026 30.3 855 25.25 -1.3 29.6 64 -7.4 18.7
05:15 1026 30.3 855 25.25 -1.2 29.9 63 -7.4 18.7
05:20 1026 30.3 855 25.25 -1 30.1 63 -7.3 18.8
05:25 1026 30.3 855 25.25 -1.4 29.5 64 -7.3 18.8
05:30 1026 30.3 855 25.25 -1.9 28.6 67 -7.3 18.8
05:35 1026 30.3 855 25.25 -2 28.4 67 -7.3 18.9
05:40 1026 30.3 855 25.25 -1.8 28.8 66 -7.4 18.7
05:45 1026 30.3 855 25.25 -1.7 29 65 -7.5 18.5
05:50 1026 30.3 855 25.25 -1.9 28.5 67 -7.3 18.8
05:55 1026 30.3 855 25.25 -2 28.4 66 -7.5 18.5
06:00 1026 30.3 855 25.25 -2.3 27.8 68 -7.5 18.5
06:05 1026 30.3 855 25.25 -2.7 27.1 69 -7.6 18.4
06:10 1026 30.3 855 25.25 -2.8 26.9 70 -7.6 18.4
06:15 1026 30.3 855 25.25 -2.7 27.1 70 -7.5 18.5
06:20 1026 30.3 855 25.25 -2.8 26.9 70 -7.5 18.5
06:25 1026 30.3 855 25.25 -2.8 27 69 -7.6 18.3
06:30 1026 30.3 855 25.25 -3 26.6 71 -7.6 18.3
06:35 1026 30.3 855 25.25 -2.9 26.9 70 -7.6 18.4
06:40 1026 30.3 855 25.25 -2.9 26.7 70 -7.7 18.2
06:45 1026 30.3 855 25.25 -3.2 26.2 72 -7.7 18.2
06:50 1026 30.3 855 25.25 -3.2 26.2 71 -7.7 18.1
06:55 1026 30.3 855 25.25 -3 26.7 71 -7.6 18.3
07:00 1026 30.3 855 25.25 -3.2 26.3 72 -7.5 18.5
07:05 1026 30.3 855 25.25 -3.2 26.3 72 -7.4 18.6
07:10 1026 30.3 855 25.25 -3.1 26.3 72 -7.6 18.4
07:15 1026 30.3 855 25.25 -3 26.5 71 -7.6 18.4
07:20 1025 30.27 855 25.25 -3.2 26.2 73 -7.4 18.6
07:25 1025 30.27 855 25.25 -3.4 25.9 72 -7.7 18.1
07:30 1025 30.27 855 25.25 -3.4 25.9 73 -7.5 18.4
07:35 1025 30.27 855 25.25 -3.2 26.2 72 -7.6 18.3
07:40 1025 30.27 855 25.25 -3.2 26.2 72 -7.5 18.4
07:45 1025 30.27 855 25.25 -3.1 26.5 71 -7.6 18.4
07:50 1025 30.27 855 25.25 -3.1 26.4 72 -7.5 18.5
07:55 1025 30.27 855 25.25 -3.1 26.4 72 -7.5 18.5
08:00 1025 30.27 855 25.25 -3.1 26.3 73 -7.4 18.7
08:05 1025 30.27 854 25.22 -2.9 26.7 71 -7.5 18.5
08:10 1025 30.27 854 25.22 -3.1 26.4 72 -7.4 18.6
08:15 1025 30.27 854 25.22 -3.1 26.4 72 -7.5 18.4
08:20 1025 30.27 854 25.22 -3.1 26.4 71 -7.6 18.3
08:25 1025 30.27 854 25.22 -3.2 26.3 72 -7.6 18.4
08:30 1025 30.27 854 25.22 -3.1 26.5 72 -7.4 18.6
08:35 1025 30.27 854 25.22 -2.9 26.7 71 -7.4 18.6
08:40 1025 30.27 854 25.22 -2.8 26.9 71 -7.5 18.6
08:45 1025 30.27 854 25.22 -2.9 26.8 71 -7.5 18.5
08:50 1025 30.27 854 25.22 -2.9 26.8 70 -7.6 18.3
08:55 1025 30.27 854 25.22 -2.7 27.1 69 -7.6 18.3
09:00 1025 30.27 854 25.22 -2.5 27.5 68 -7.6 18.3
09:05 1025 30.27 854 25.22 -2.6 27.3 69 -7.5 18.4
09:10 1025 30.27 854 25.22 -2.7 27.1 69 -7.6 18.3
09:15 1025 30.27 854 25.22 -2.7 27.1 69 -7.6 18.3
09:20 1025 30.27 854 25.22 -2.4 27.6 67 -7.7 18.1
09:25 1025 30.27 854 25.22 -2.2 28 67 -7.5 18.4
09:30 1025 30.27 854 25.22 -2.4 27.6 67 -7.7 18.1
09:35 1025 30.27 854 25.22 -2.3 27.8 67 -7.7 18.1
09:40 1025 30.27 854 25.22 -2.1 28.2 66 -7.7 18.2
09:45 1024 30.24 854 25.22 -1.9 28.6 64 -7.7 18.1
09:50 1024 30.24 854 25.22 -1.6 29.1 64 -7.6 18.3
09:55 1024 30.24 854 25.22 -1.2 29.8 61 -7.7 18.1
10:00 1024 30.24 853 25.19 -1 30.2 62 -7.5 18.5
10:05 1024 30.24 853 25.19 -0.9 30.4 60 -7.6 18.3
10:10 1024 30.24 854 25.22 -0.4 31.3 59 -7.5 18.6
10:15 1024 30.24 854 25.22 0.1 32.2 59 -7 19.4
10:20 1024 30.24 853 25.19 0.2 32.3 59 -7 19.3
10:25 1024 30.24 854 25.22 0.6 33.1 58 -6.8 19.8
10:30 1024 30.24 854 25.22 0.6 33 59 -6.6 20.1
10:35 1024 30.24 854 25.22 0.7 33.3 57 -6.9 19.7
10:40 1024 30.24 854 25.22 1.5 34.7 56 -6.4 20.4
10:45 1024 30.24 854 25.22 1.7 35.1 55 -6.5 20.3
10:50 1024 30.24 854 25.22 2 35.7 54 -6.4 20.5
10:55 1024 30.24 854 25.22 2.1 35.9 52 -6.7 20
11:00 1024 30.24 854 25.22 2.3 36.2 52 -6.5 20.3
11:05 1024 30.24 854 25.22 2.3 36.1 52 -6.7 19.9
11:10 1024 30.24 854 25.22 2.6 36.7 52 -6.4 20.5
11:15 1024 30.24 853 25.19 2.4 36.3 53 -6.3 20.7
11:20 1024 30.24 853 25.19 2.3 36.2 52 -6.7 20
11:25 1024 30.24 853 25.19 2 35.5 51 -7 19.4
11:30 1024 30.24 853 25.19 2.4 36.2 50 -7.1 19.2
11:35 1024 30.24 853 25.19 2.6 36.8 49 -6.9 19.5
11:40 1024 30.24 853 25.19 2.8 37.1 50 -6.7 19.9
11:45 1024 30.24 853 25.19 2.9 37.2 51 -6.3 20.6
11:50 1024 30.24 853 25.19 3.1 37.5 52 -5.9 21.4
11:55 1024 30.24 853 25.19 3.1 37.6 49 -6.6 20.1
12:00 1024 30.24 853 25.19 3.8 38.8 49 -6 21.3
12:05 1024 30.24 853 25.19 3.5 38.3 50 -5.8 21.5
12:10 1024 30.24 853 25.19 3.5 38.3 50 -6 21.1
12:15 1024 30.24 853 25.19 4.3 39.7 47 -6.2 20.8
12:20 1024 30.24 853 25.19 4.4 39.9 45 -6.4 20.4
12:25 1024 30.24 853 25.19 4.7 40.5 45 -6.3 20.6
12:30 1024 30.24 853 25.19 4.8 40.7 44 -6.5 20.2
12:35 1023 30.21 853 25.19 4.8 40.6 41 -7.4 18.6
12:40 1023 30.21 853 25.19 4.4 40 44 -6.9 19.6
12:45 1023 30.21 853 25.19 4.2 39.6 44 -6.9 19.6
12:50 1023 30.21 852 25.16 3.8 38.8 46 -6.9 19.5
12:55 1023 30.21 852 25.16 3.5 38.4 47 -6.8 19.7
13:00 1023 30.21 852 25.16 3.8 38.9 45 -7.1 19.2
13:05 1023 30.21 852 25.16 4.5 40.2 43 -6.9 19.6
13:10 1023 30.21 852 25.16 4.4 39.9 45 -6.5 20.3
13:15 1023 30.21 852 25.16 3.8 38.9 47 -6.6 20.1
13:20 1023 30.21 852 25.16 3.4 38 48 -6.8 19.8
13:25 1022 30.18 852 25.16 3.4 38.2 47 -6.8 19.7
13:30 1022 30.18 852 25.16 3.1 37.6 50 -6.3 20.7
13:35 1022 30.18 852 25.16 2.9 37.2 51 -6.3 20.6
13:40 1022 30.18 851 25.13 2.9 37.1 51 -6.4 20.5
13:45 1022 30.18 851 25.13 2.8 37 52 -6.1 21
13:50 1022 30.18 851 25.13 3.6 38.5 48 -6.4 20.4
13:55 1022 30.18 851 25.13 4.2 39.6 45 -6.7 20
14:00 1022 30.18 851 25.13 4.9 40.8 43 -6.5 20.2
14:05 1022 30.18 851 25.13 5.3 41.5 42 -6.6 20.2
14:10 1022 30.18 851 25.13 5.9 42.7 37 -7.6 18.2
14:15 1022 30.18 851 25.13 6.1 42.9 38 -7.1 19.3
14:20 1022 30.18 851 25.13 6.3 43.3 37 -7.3 18.9
14:25 1022 30.18 851 25.13 6.2 43.1 38 -7.2 19
14:30 1022 30.18 851 25.13 6.4 43.5 38 -6.9 19.5
14:35 1022 30.18 851 25.13 6.3 43.4 37 -7.3 18.9
14:40 1022 30.18 851 25.13 6.2 43.2 39 -6.7 20
14:45 1021 30.15 851 25.13 6.4 43.5 37 -7.2 19
14:50 1021 30.15 851 25.13 6.7 44.1 38 -6.6 20.1
14:55 1021 30.15 850 25.1 6.8 44.2 39 -6.2 20.8
15:00 1021 30.15 850 25.1 6 42.7 41 -6.2 20.9
15:05 1021 30.15 850 25.1 6.1 42.9 41 -6.3 20.7
15:10 1021 30.15 850 25.1 6.3 43.4 41 -6 21.1
15:15 1021 30.15 850 25.1 6.5 43.6 40 -6.3 20.7
15:20 1021 30.15 850 25.1 6.9 44.4 39 -6.2 20.9
15:25 1021 30.15 850 25.1 6.9 44.4 39 -6.2 20.8
15:30 1021 30.15 850 25.1 7.1 44.8 39 -5.9 21.3
15:35 1021 30.15 850 25.1 6.4 43.5 42 -5.6 21.9
15:40 1021 30.15 850 25.1 6.5 43.6 38 -6.7 20
15:45 1021 30.15 850 25.1 7.1 44.7 39 -5.9 21.4
15:50 1021 30.15 850 25.1 7.9 46.3 35 -6.5 20.4
15:55 1021 30.15 850 25.1 8.1 46.5 37 -5.8 21.5
16:00 1021 30.15 850 25.1 7.6 45.7 35 -6.7 19.9
16:05 1021 30.15 850 25.1 7.2 44.9 38 -6.3 20.7
16:10 1021 30.15 850 25.1 7.6 45.8 36 -6.5 20.3
16:15 1021 30.15 850 25.1 8 46.3 35 -6.6 20.2
16:20 1021 30.15 850 25.1 7.6 45.6 34 -7.2 19.1
16:25 1021 30.15 850 25.1 7.2 44.9 36 -7 19.4
16:30 1021 30.15 850 25.1 6.9 44.5 37 -6.9 19.6
16:35 1021 30.15 850 25.1 7.4 45.3 37 -6.5 20.3
16:40 1021 30.15 850 25.1 8.2 46.8 35 -6.3 20.7
16:45 1021 30.15 850 25.1 8.6 47.4 34 -6.3 20.6
16:50 1021 30.15 850 25.1 8.7 47.7 35 -5.9 21.4
16:55 1021 30.15 850 25.1 8.7 47.6 33 -6.7 19.9
17:00 1021 30.15 850 25.1 8.8 47.8 32 -6.9 19.6
17:05 1021 30.15 850 25.1 8.9 48.1 32 -6.8 19.8
17:10 1021 30.15 850 25.1 8.8 47.9 32 -6.9 19.6
17:15 1021 30.15 850 25.1 8.8 47.9 32 -6.9 19.7
17:20 1021 30.15 850 25.1 8.8 47.8 32 -6.8 19.7
17:25 1021 30.15 850 25.1 8.5 47.2 33 -7.1 19.3
17:30 1021 30.15 850 25.1 8.4 47.2 32 -7.2 19.1
17:35 1021 30.15 850 25.1 8.5 47.4 32 -7.2 19.1
17:40 1021 30.15 850 25.1 8.6 47.5 31 -7.5 18.5
17:45 1021 30.15 850 25.1 8.6 47.4 31 -7.6 18.4
17:50 1021 30.15 850 25.1 8.4 47 32 -7.4 18.6
17:55 1021 30.15 850 25.1 8.1 46.6 32 -7.6 18.3
18:00 1021 30.15 850 25.1 7.7 45.9 33 -7.4 18.7
18:05 1021 30.15 850 25.1 7.4 45.4 35 -7.1 19.2
18:10 1021 30.15 850 25.1 7.2 45 36 -7 19.5
18:15 1021 30.15 850 25.1 6.9 44.4 38 -6.6 20.2
18:20 1021 30.15 850 25.1 6.5 43.8 38 -6.8 19.8
18:25 1021 30.15 850 25.1 6.5 43.7 39 -6.6 20.1
18:30 1021 30.15 850 25.1 6.5 43.7 39 -6.6 20.2
18:35 1021 30.15 850 25.1 6.5 43.7 39 -6.5 20.3
18:40 1021 30.15 850 25.1 6.5 43.7 40 -6.1 21
18:45 1021 30.15 850 25.1 5.9 42.7 45 -5.1 22.8
18:50 1021 30.15 850 25.1 4.7 40.5 48 -5.5 22.2
18:55 1021 30.15 850 25.1 4.3 39.8 47 -5.9 21.5
19:00 1021 30.15 850 25.1 4.7 40.5 47 -5.7 21.8
19:05 1021 30.15 850 25.1 4.9 40.8 44 -6.2 20.8
19:10 1021 30.15 850 25.1 5 41 47 -5.5 22.2
19:15 1021 30.15 850 25.1 4.4 39.9 48 -5.8 21.6
19:20 1021 30.15 850 25.1 4.4 40 47 -5.8 21.6
19:25 1021 30.15 850 25.1 4.5 40.2 47 -5.8 21.6
19:30 1021 30.15 850 25.1 4.5 40.1 49 -5.4 22.2
19:35 1021 30.15 850 25.1 4.2 39.5 50 -5.4 22.3
19:40 1021 30.15 850 25.1 4 39.1 50 -5.6 21.9
19:45 1021 30.15 850 25.1 4 39.1 49 -5.7 21.7
19:50 1021 30.15 851 25.13 3.9 39 49 -5.8 21.5
19:55 1021 30.15 851 25.13 3.8 38.8 50 -5.6 21.9
20:00 1021 30.15 851 25.13 2.7 36.9 55 -5.4 22.3
20:05 1021 30.15 851 25.13 2 35.7 54 -6.3 20.7
20:10 1021 30.15 851 25.13 2.5 36.5 53 -6 21.1
20:15 1021 30.15 851 25.13 2.9 37.2 52 -6 21.2
20:20 1021 30.15 851 25.13 3.2 37.7 52 -5.8 21.5
20:25 1021 30.15 851 25.13 3.3 38 51 -5.9 21.3
20:30 1021 30.15 851 25.13 3 37.4 52 -6 21.2
20:35 1021 30.15 851 25.13 2.9 37.3 50 -6.5 20.3
20:40 1021 30.15 850 25.1 3.6 38.5 49 -6.1 20.9
20:45 1021 30.15 851 25.13 3.8 38.9 49 -6 21.2
20:50 1021 30.15 850 25.1 3.9 39 49 -5.9 21.5
20:55 1021 30.15 850 25.1 3.4 38.1 51 -5.7 21.7
21:00 1021 30.15 850 25.1 2.9 37.2 52 -6 21.2
21:05 1021 30.15 850 25.1 3 37.5 53 -5.7 21.7
21:10 1021 30.15 850 25.1 2.7 36.9 53 -6 21.2
21:15 1021 30.15 850 25.1 2.9 37.3 52 -6.1 21.1
21:20 1021 30.15 850 25.1 3.1 37.6 52 -5.8 21.5
21:25 1021 30.15 850 25.1 2.7 36.9 53 -5.8 21.5
21:30 1021 30.15 850 25.1 2.6 36.6 53 -6 21.2
21:35 1021 30.15 850 25.1 2.7 36.9 52 -6.1 20.9
21:40 1021 30.15 851 25.13 3.2 37.7 50 -6.2 20.8
21:45 1021 30.15 850 25.1 3.6 38.4 49 -6.2 20.9
21:50 1021 30.15 850 25.1 3.6 38.6 49 -6 21.2
21:55 1021 30.15 850 25.1 3.6 38.4 50 -5.9 21.4
22:00 1021 30.15 850 25.1 3.4 38.2 50 -6 21.2
22:05 1021 30.15 850 25.1 3.5 38.3 49 -6.1 21
22:10 1021 30.15 850 25.1 3.5 38.4 50 -6 21.2
22:15 1021 30.15 850 25.1 3.6 38.5 49 -6.1 21.1
22:20 1021 30.15 850 25.1 3.5 38.3 50 -5.9 21.3
22:25 1021 30.15 850 25.1 3.3 38 51 -5.9 21.3
22:30 1021 30.15 850 25.1 3.3 37.9 51 -6 21.2
22:35 1021 30.15 850 25.1 3.4 38.1 50 -6 21.2
22:40 1021 30.15 850 25.1 3.4 38.1 50 -6 21.3
22:45 1021 30.15 850 25.1 3.2 37.7 52 -5.8 21.6
22:50 1021 30.15 850 25.1 2.8 37 53 -5.9 21.4
22:55 1021 30.15 850 25.1 2.4 36.4 54 -5.9 21.5
23:00 1021 30.15 850 25.1 2.2 35.9 55 -6 21.3
23:05 1021 30.15 850 25.1 2.3 36.1 54 -6 21.2
23:10 1021 30.15 850 25.1 2.2 36 54 -6 21.1
23:15 1021 30.15 850 25.1 2.1 35.7 56 -5.9 21.4
23:20 1020 30.12 850 25.1 1.9 35.4 57 -5.8 21.5
23:25 1020 30.12 850 25.1 1.8 35.2 56 -6.2 20.9
23:30 1020 30.12 850 25.1 1.8 35.3 56 -6.1 21
23:35 1020 30.12 850 25.1 2 35.6 55 -6.2 20.9
23:40 1020 30.12 850 25.1 2 35.6 56 -6 21.3
23:45 1020 30.12 849 25.07 1.6 34.8 58 -5.9 21.4
23:50 1020 30.12 849 25.07 1.6 35 56 -6.2 20.9
23:55 1020 30.12 849 25.07 1.7 35.1 57 -5.9 21.4
24:00 1020 30.12 849 25.07 1.4 34.6 57 -6.1 21